Sunday, May 27, 2018, 11:41 AM EDT
Back to Local

KROC, Greater Rochester International

Location: Rochester, NY, United States Lat: 43.117
Local Time: 11:41 AM EDT (15:41 GMT) Lon: -77.683
Time Zone: US/Eastern Elev: 557 ft

Show me the last for .
Show Decoded

2018-05-27 10:54 METAR KROC 271454Z 21005KT 10SM FEW090 SCT120 SCT150 BKN250 24/18 A2996 RMK AO2
                 SLP144 T02390183 50008 =
2018-05-27 09:54 METAR KROC 271354Z 24007KT 10SM FEW090 BKN120 BKN150 BKN250 23/18 A2996 RMK AO2
                 SLP145 T02280178 =
2018-05-27 08:54 METAR KROC 271254Z 21004KT 10SM FEW090 SCT110 BKN150 OVC250 22/17 A2995 RMK AO2
                 SLP140 BINOVC E T02220172 =
2018-05-27 07:54 METAR KROC 271154Z 24003KT 10SM SCT090 BKN110 BKN150 OVC250 22/17 A2993 RMK AO2
                 SLP135 60000 T02170172 10217 20183 53010 =
2018-05-27 06:54 METAR KROC 271054Z 23005KT 10SM BKN090 20/17 A2992 RMK AO2 SLP130 T02000167 =
2018-05-27 05:54 METAR KROC 270954Z 24004KT 10SM BKN080 19/17 A2991 RMK AO2 SLP126 T01940167 =
2018-05-27 04:54 METAR KROC 270854Z 23003KT 10SM BKN090 19/17 A2990 RMK AO2 SLP124 60000
                 T01890172 53004 =
2018-05-27 03:54 METAR KROC 270754Z 06003KT 10SM OVC085 20/16 A2989 RMK AO2 SLP120 T02000161 =
2018-05-27 02:54 METAR KROC 270654Z 05004KT 10SM FEW050 BKN085 OVC120 19/16 A2989 RMK AO2
                 RAB34E50 SLP121 P0000 T01890161 =
2018-05-27 01:54 METAR KROC 270554Z 26007KT 10SM BKN110 19/15 A2989 RMK AO2 SLP120 T01940150
                 10233 20194 58002 =
2018-05-27 00:54 METAR KROC 270454Z 11003KT 10SM BKN110 20/15 A2989 RMK AO2 SLP121 T02000150
                 402940167 =
2018-05-26 23:54 METAR KROC 270354Z 10004KT 10SM SCT140 SCT220 20/15 A2989 RMK AO2 SLP121
                 T02000150 =
2018-05-26 22:54 METAR KROC 270254Z COR 08005KT 10SM SCT140 BKN220 20/15 A2989 RMK AO2 SLP121
                 T02000150 51015 =
2018-05-26 21:54 METAR KROC 270154Z 09004KT 10SM BKN140 BKN230 20/14 A2989 RMK AO2 SLP121
                 T02000144 =
2018-05-26 20:54 METAR KROC 270054Z 02008KT 10SM FEW110 SCT140 BKN260 22/14 A2987 RMK AO2 SLP116
                 T02170139 =
2018-05-26 19:54 METAR KROC 262354Z 04012KT 10SM FEW070 FEW120 SCT150 BKN260 23/14 A2985 RMK AO2
                 SLP107 T02330139 10294 20233 53017 =
2018-05-26 18:54 METAR KROC 262254Z 29005KT 10SM FEW070 SCT120 BKN160 BKN280 29/15 A2982 RMK AO2
                 SLP097 T02890150 =
2018-05-26 17:54 METAR KROC 262154Z 25008KT 10SM FEW080 SCT140 BKN200 BKN280 28/14 A2980 RMK AO2
                 SLP092 T02780139 =
2018-05-26 16:54 METAR KROC 262054Z VRB03KT 10SM FEW100 BKN140 BKN200 29/14 A2980 RMK AO2 SLP089
                 T02890144 58007 =
2018-05-26 15:54 METAR KROC 261954Z 00000KT 4SM HZ SCT080 OVC140 28/17 A2981 RMK AO2 SLP095
                 T02780167 =
2018-05-26 14:54 METAR KROC 261854Z 00000KT 10SM SCT100 BKN140 OVC180 27/16 A2983 RMK AO2 SLP099
                 T02720161 =
2018-05-26 13:54 METAR KROC 261754Z 23004KT 10SM SCT100 BKN140 OVC180 28/16 A2982 RMK AO2 SLP097
                 T02780156 10283 20200 50001 =
2018-05-26 12:54 METAR KROC 261654Z 30007KT 10SM FEW090 SCT140 BKN180 OVC230 27/16 A2982 RMK AO2
                 SLP098 T02720156 =
2018-05-26 11:54 METAR KROC 261554Z 26009KT 10SM FEW100 SCT150 OVC220 27/15 A2982 RMK AO2 SLP097
                 T02720150 =

Support USWX by starting your Amazon purchase here.